createdAt,value
2019-05-02T00:01:32.819Z,26.97
2019-05-02T00:03:41.040Z,26.23
2019-05-02T00:05:43.594Z,25.35
2019-05-02T00:07:47.141Z,27.50
2019-05-02T00:09:51.709Z,29.25
2019-05-02T00:11:58.813Z,25.57
2019-05-02T00:14:02.387Z,27.50
2019-05-02T00:16:09.072Z,27.53
2019-05-02T00:18:12.911Z,27.90
2019-05-02T00:20:21.254Z,27.17
2019-05-02T00:22:24.533Z,28.32
2019-05-02T00:24:28.457Z,29.40
2019-05-02T00:26:32.591Z,26.50
2019-05-02T00:28:36.899Z,29.12
2019-05-02T00:30:41.017Z,28.42
2019-05-02T00:32:45.224Z,29.30
2019-05-02T00:34:49.440Z,28.85
2019-05-02T00:36:53.654Z,27.02
2019-05-02T00:38:57.857Z,27.15
2019-05-02T00:41:02.585Z,29.65
2019-05-02T00:43:07.813Z,28.02
2019-05-02T00:45:14.084Z,25.72
2019-05-02T00:47:19.224Z,26.10
2019-05-02T00:49:23.425Z,27.48
2019-05-02T00:51:28.142Z,29.02
2019-05-02T00:53:32.357Z,27.60
2019-05-02T00:55:36.887Z,28.40
2019-05-02T00:57:40.718Z,28.15
2019-05-02T00:59:44.887Z,30.50
2019-05-02T01:02:00.002Z,26.12
2019-05-02T01:04:23.340Z,27.07
2019-05-02T01:06:28.047Z,26.57
2019-05-02T01:08:35.618Z,25.97
2019-05-02T01:10:38.011Z,28.40
2019-05-02T01:12:44.375Z,29.82
2019-05-02T01:14:48.065Z,27.82
2019-05-02T01:16:54.438Z,28.40
2019-05-02T01:18:57.537Z,29.30
2019-05-02T01:21:02.764Z,28.30
2019-05-02T01:23:07.302Z,28.27
2019-05-02T01:25:15.793Z,29.23
2019-05-02T01:27:19.390Z,30.08
2019-05-02T01:29:29.752Z,31.35
2019-05-02T01:31:37.548Z,28.75
2019-05-02T01:33:55.370Z,28.10
2019-05-02T01:36:06.241Z,29.12
2019-05-02T01:38:31.632Z,28.77
2019-05-02T01:40:31.767Z,30.60
2019-05-02T01:42:39.965Z,29.07
2019-05-02T01:44:41.724Z,31.05
2019-05-02T01:46:45.836Z,33.65
2019-05-02T01:48:50.069Z,33.55
2019-05-02T01:50:54.271Z,33.23
2019-05-02T01:53:00.097Z,33.00
2019-05-02T01:55:06.508Z,34.18
2019-05-02T01:57:10.686Z,35.98
2019-05-02T01:59:14.908Z,36.60
2019-05-02T02:01:21.402Z,34.38
2019-05-02T02:03:24.790Z,36.35
2019-05-02T02:05:32.246Z,37.08
2019-05-02T02:07:34.543Z,37.42
2019-05-02T02:09:43.619Z,37.03
2019-05-02T02:11:44.693Z,35.65
2019-05-02T02:13:48.537Z,36.20
2019-05-02T02:15:52.705Z,36.03
2019-05-02T02:17:56.912Z,37.65
2019-05-02T02:20:09.744Z,36.38
2019-05-02T02:22:16.195Z,40.75
2019-05-02T02:24:25.094Z,38.40
2019-05-02T02:26:27.892Z,38.65
2019-05-02T02:28:33.129Z,42.08
2019-05-02T02:30:37.370Z,38.98
2019-05-02T02:32:41.548Z,37.38
2019-05-02T02:34:45.381Z,38.80
2019-05-02T02:36:49.584Z,45.83
2019-05-02T02:38:53.682Z,41.58
2019-05-02T02:40:57.585Z,42.58
2019-05-02T02:43:13.044Z,44.75
2019-05-02T02:45:21.565Z,46.13
2019-05-02T02:47:25.392Z,45.17
2019-05-02T02:49:29.236Z,45.67
2019-05-02T02:51:33.405Z,47.58
2019-05-02T02:53:37.632Z,45.83
2019-05-02T02:55:41.827Z,44.38
2019-05-02T02:57:46.044Z,43.60
2019-05-02T02:59:49.895Z,45.10
2019-05-02T03:01:54.058Z,42.13
2019-05-02T03:04:02.140Z,42.65
2019-05-02T03:06:07.623Z,37.15
2019-05-02T03:08:10.265Z,44.03
2019-05-02T03:10:14.493Z,42.40
2019-05-02T03:12:22.404Z,41.90
2019-05-02T03:14:27.897Z,43.05
2019-05-02T03:16:33.677Z,46.65
2019-05-02T03:18:41.053Z,44.70
2019-05-02T03:20:43.872Z,46.53
2019-05-02T03:22:48.062Z,46.88
2019-05-02T03:24:52.163Z,48.38
2019-05-02T03:26:58.425Z,44.73
2019-05-02T03:29:02.537Z,46.05
2019-05-02T03:31:21.867Z,48.38
2019-05-02T03:33:13.113Z,45.38
2019-05-02T03:35:18.846Z,50.63
2019-05-02T03:37:22.765Z,48.08
2019-05-02T03:39:27.004Z,47.65
2019-05-02T03:41:30.896Z,48.33
2019-05-02T03:43:34.789Z,48.10
2019-05-02T03:45:42.796Z,46.48
2019-05-02T03:47:46.543Z,49.27
2019-05-02T03:49:52.233Z,45.88
2019-05-02T03:52:03.128Z,47.40
2019-05-02T03:54:07.409Z,49.67
2019-05-02T03:56:11.512Z,51.10
2019-05-02T03:58:16.580Z,48.33
2019-05-02T04:00:23.865Z,48.80
2019-05-02T04:02:25.438Z,48.25
2019-05-02T04:04:30.532Z,44.83
2019-05-02T04:06:34.742Z,44.15
2019-05-02T04:08:39.322Z,48.15
2019-05-02T04:10:46.276Z,48.23
2019-05-02T04:12:53.267Z,52.43
2019-05-02T04:14:57.474Z,51.42
2019-05-02T04:17:01.642Z,48.20
2019-05-02T04:19:05.876Z,47.45
2019-05-02T04:21:10.292Z,47.30
2019-05-02T04:23:14.896Z,49.53
2019-05-02T04:25:19.736Z,53.13
2019-05-02T04:27:27.904Z,48.48
2019-05-02T04:29:33.106Z,53.95
2019-05-02T04:31:37.490Z,48.50
2019-05-02T04:33:41.475Z,54.45
2019-05-02T04:35:45.604Z,56.48
2019-05-02T04:37:49.808Z,56.58
2019-05-02T04:40:00.706Z,54.25
2019-05-02T04:42:05.328Z,54.30
2019-05-02T04:44:05.526Z,52.15
2019-05-02T04:46:18.085Z,56.63
2019-05-02T04:48:18.241Z,54.18
2019-05-02T04:50:25.201Z,55.40
2019-05-02T04:52:28.731Z,52.73
2019-05-02T04:54:32.895Z,55.08
2019-05-02T04:56:42.253Z,53.10
2019-05-02T04:58:42.998Z,55.30
2019-05-02T05:00:53.462Z,57.20
2019-05-02T05:02:53.359Z,54.23
2019-05-02T05:04:58.241Z,53.68
2019-05-02T05:07:02.082Z,52.00
2019-05-02T05:09:11.756Z,55.75
2019-05-02T05:11:13.908Z,53.13
2019-05-02T05:13:22.822Z,52.13
2019-05-02T05:15:37.059Z,51.48
2019-05-02T05:17:32.966Z,50.67
2019-05-02T05:19:37.369Z,50.35
2019-05-02T05:21:41.732Z,51.53
2019-05-02T05:24:01.022Z,51.42
2019-05-02T05:26:04.638Z,50.55
2019-05-02T05:28:09.001Z,55.52
2019-05-02T05:30:15.802Z,52.45
2019-05-02T05:32:19.495Z,53.58
2019-05-02T05:34:28.498Z,51.70
2019-05-02T05:36:33.714Z,55.23
2019-05-02T05:38:38.370Z,50.88
2019-05-02T05:40:40.953Z,57.55
2019-05-02T05:42:45.050Z,49.18
2019-05-02T05:44:49.265Z,46.80
2019-05-02T05:46:52.816Z,48.53
2019-05-02T05:48:58.259Z,59.10
2019-05-02T05:51:02.434Z,54.33
2019-05-02T05:53:07.968Z,62.15
2019-05-02T05:55:12.845Z,62.85
2019-05-02T05:57:21.050Z,58.43
2019-05-02T05:59:28.271Z,62.23
2019-05-02T06:01:34.099Z,61.33
2019-05-02T06:03:38.468Z,58.47
2019-05-02T06:05:41.186Z,55.13
2019-05-02T06:07:45.026Z,48.70
2019-05-02T06:09:49.566Z,54.00
2019-05-02T06:11:55.372Z,54.23
2019-05-02T06:13:58.690Z,52.90
2019-05-02T06:16:03.346Z,57.67
2019-05-02T06:18:07.136Z,56.37
2019-05-02T06:20:11.321Z,58.27
2019-05-02T06:22:16.501Z,59.17
2019-05-02T06:24:20.148Z,59.10
2019-05-02T06:26:23.966Z,55.30
2019-05-02T06:28:27.885Z,58.77
2019-05-02T06:30:32.369Z,56.63
2019-05-02T06:32:36.298Z,56.13
2019-05-02T06:34:46.627Z,61.07
2019-05-02T06:36:45.436Z,58.73
2019-05-02T06:38:52.294Z,58.10
2019-05-02T06:40:54.616Z,61.40
2019-05-02T06:42:58.476Z,57.30
2019-05-02T06:45:02.403Z,58.47
2019-05-02T06:47:06.008Z,55.17
2019-05-02T06:49:09.898Z,62.40
2019-05-02T06:51:19.606Z,62.33
2019-05-02T06:53:19.343Z,57.63
2019-05-02T06:55:23.248Z,57.93
2019-05-02T06:57:27.160Z,58.23
2019-05-02T06:59:31.063Z,57.30
2019-05-02T07:01:35.060Z,60.70
2019-05-02T07:03:41.274Z,64.73
2019-05-02T07:05:43.840Z,64.47
2019-05-02T07:07:47.712Z,59.53
2019-05-02T07:09:51.274Z,61.17
2019-05-02T07:11:57.832Z,62.13
2019-05-02T07:14:12.583Z,58.10
2019-05-02T07:16:15.487Z,58.20
2019-05-02T07:18:17.883Z,61.03
2019-05-02T07:20:21.778Z,59.80
2019-05-02T07:22:25.889Z,57.53
2019-05-02T07:24:30.729Z,58.97
2019-05-02T07:26:34.825Z,61.33
2019-05-02T07:28:40.178Z,61.23
2019-05-02T07:30:44.483Z,58.20
2019-05-02T07:32:48.392Z,58.77
2019-05-02T07:34:52.301Z,56.03
2019-05-02T07:36:56.202Z,58.17
2019-05-02T07:39:05.211Z,57.93
2019-05-02T07:41:06.065Z,56.97
2019-05-02T07:43:13.023Z,57.10
2019-05-02T07:45:15.926Z,52.70
2019-05-02T07:47:19.813Z,54.60
2019-05-02T07:49:26.547Z,55.60
2019-05-02T07:51:29.944Z,55.50
2019-05-02T07:53:33.801Z,53.87
2019-05-02T07:55:40.643Z,55.43
2019-05-02T07:57:42.932Z,55.13
2019-05-02T07:59:49.553Z,55.33
2019-05-02T08:01:52.173Z,56.40
2019-05-02T08:03:56.099Z,53.93
2019-05-02T08:06:00.103Z,52.67
2019-05-02T08:08:04.090Z,52.70
2019-05-02T08:10:08.821Z,53.77
2019-05-02T08:12:13.708Z,53.13
2019-05-02T08:14:17.655Z,54.93
2019-05-02T08:16:22.355Z,50.47
2019-05-02T08:18:30.359Z,52.53
2019-05-02T08:20:32.554Z,51.83
2019-05-02T08:22:36.110Z,53.63
2019-05-02T08:24:39.952Z,50.20
2019-05-02T08:26:45.485Z,47.73
2019-05-02T08:29:02.713Z,51.70
2019-05-02T08:31:06.503Z,50.40
2019-05-02T08:33:10.060Z,46.87
2019-05-02T08:35:14.029Z,50.23
2019-05-02T08:37:17.922Z,52.27
2019-05-02T08:39:25.929Z,51.03
2019-05-02T08:41:26.711Z,51.67
2019-05-02T08:43:30.674Z,47.10
2019-05-02T08:45:38.118Z,47.83
2019-05-02T08:47:40.217Z,50.67
2019-05-02T08:49:44.237Z,48.20
2019-05-02T08:51:48.123Z,47.47
2019-05-02T08:53:56.614Z,49.90
2019-05-02T08:55:57.688Z,48.07
2019-05-02T08:58:05.845Z,48.50
2019-05-02T09:00:10.510Z,48.90
2019-05-02T09:02:14.402Z,46.77
2019-05-02T09:04:18.215Z,48.17
2019-05-02T09:06:24.042Z,48.37
2019-05-02T09:08:27.393Z,46.10
2019-05-02T09:10:31.290Z,46.37
2019-05-02T09:12:36.859Z,44.50
2019-05-02T09:14:42.596Z,45.57
2019-05-02T09:16:46.570Z,48.57
2019-05-02T09:18:53.798Z,47.83
2019-05-02T09:20:56.736Z,47.57
2019-05-02T09:23:01.742Z,43.83
2019-05-02T09:25:09.460Z,43.10
2019-05-02T09:27:13.369Z,43.83
2019-05-02T09:29:17.295Z,44.57
2019-05-02T09:31:22.642Z,40.47
2019-05-02T09:33:26.409Z,37.47
2019-05-02T09:35:30.321Z,39.57
2019-05-02T09:37:33.917Z,40.07
2019-05-02T09:39:37.820Z,37.97
2019-05-02T09:41:41.973Z,36.20
2019-05-02T09:43:45.832Z,37.53
2019-05-02T09:45:51.859Z,39.43
2019-05-02T09:48:04.151Z,37.50
2019-05-02T09:50:08.375Z,38.57
2019-05-02T09:52:11.969Z,39.60
2019-05-02T09:54:15.802Z,36.80
2019-05-02T09:56:19.619Z,37.97
2019-05-02T09:58:24.085Z,37.93
2019-05-02T10:00:32.138Z,34.70
2019-05-02T10:02:35.681Z,35.60
2019-05-02T10:04:43.448Z,35.10
2019-05-02T10:06:45.081Z,35.53
2019-05-02T10:08:49.089Z,33.97
2019-05-02T10:10:52.931Z,32.87
2019-05-02T10:12:56.801Z,34.80
2019-05-02T10:15:02.370Z,35.57
2019-05-02T10:17:07.404Z,33.33
2019-05-02T10:19:13.501Z,36.80
2019-05-02T10:21:17.312Z,34.63
2019-05-02T10:23:23.237Z,35.67
2019-05-02T10:25:32.836Z,35.70
2019-05-02T10:27:32.340Z,37.37
2019-05-02T10:29:36.132Z,36.13
2019-05-02T10:31:42.071Z,33.70
2019-05-02T10:33:45.565Z,32.30
2019-05-02T10:35:52.378Z,34.97
2019-05-02T10:37:55.947Z,30.33
2019-05-02T10:39:59.850Z,34.13
2019-05-02T10:42:03.759Z,29.73
2019-05-02T10:44:07.670Z,33.17
2019-05-02T10:46:15.852Z,32.53
2019-05-02T10:48:27.406Z,32.80
2019-05-02T10:50:29.421Z,31.53
2019-05-02T10:52:34.219Z,32.37
2019-05-02T10:54:38.245Z,28.77
2019-05-02T10:56:42.383Z,29.70
2019-05-02T10:58:46.261Z,29.40
2019-05-02T11:00:52.183Z,29.43
2019-05-02T11:03:09.451Z,28.27
2019-05-02T11:05:22.550Z,29.47
2019-05-02T11:07:26.397Z,27.77
2019-05-02T11:09:29.045Z,25.20
2019-05-02T11:11:33.047Z,27.63
2019-05-02T11:13:42.503Z,27.30
2019-05-02T11:15:48.628Z,25.43
2019-05-02T11:17:52.938Z,24.37
2019-05-02T11:20:01.883Z,28.37
2019-05-02T11:22:05.995Z,25.67
2019-05-02T11:24:12.221Z,25.77
2019-05-02T11:26:21.446Z,26.53
2019-05-02T11:28:22.033Z,25.87
2019-05-02T11:30:26.707Z,27.50
2019-05-02T11:32:32.710Z,26.90
2019-05-02T11:34:36.382Z,27.57
2019-05-02T11:36:41.555Z,26.87
2019-05-02T11:38:48.077Z,27.33
2019-05-02T11:40:52.085Z,25.23
2019-05-02T11:42:57.236Z,22.87
2019-05-02T11:45:02.679Z,25.03
2019-05-02T11:47:06.453Z,23.87
2019-05-02T11:49:12.136Z,23.97
2019-05-02T11:51:16.527Z,24.30
2019-05-02T11:53:28.841Z,22.93
2019-05-02T11:55:28.962Z,22.20
2019-05-02T11:57:33.227Z,23.47
2019-05-02T11:59:37.261Z,24.27
2019-05-02T12:01:56.214Z,23.80
2019-05-02T12:03:52.229Z,22.87
2019-05-02T12:05:55.740Z,21.67
2019-05-02T12:08:02.588Z,23.93
2019-05-02T12:10:07.034Z,21.87
2019-05-02T12:12:12.380Z,19.53
2019-05-02T12:14:16.053Z,20.10
2019-05-02T12:16:20.007Z,19.33
2019-05-02T12:18:23.880Z,21.60
2019-05-02T12:20:28.675Z,22.53
2019-05-02T12:22:33.556Z,18.57
2019-05-02T12:24:40.845Z,21.33
2019-05-02T12:26:43.096Z,20.00
2019-05-02T12:28:47.006Z,20.80
2019-05-02T12:30:51.921Z,18.60
2019-05-02T12:32:56.061Z,19.77
2019-05-02T12:34:59.973Z,19.70
2019-05-02T12:37:05.800Z,21.33
2019-05-02T12:39:09.908Z,19.07
2019-05-02T12:41:20.362Z,22.40
2019-05-02T12:43:19.140Z,21.77
2019-05-02T12:45:22.674Z,21.93
2019-05-02T12:47:26.966Z,21.27
2019-05-02T12:49:32.463Z,22.30
2019-05-02T12:51:36.619Z,22.50
2019-05-02T12:53:41.791Z,21.63
2019-05-02T12:55:45.752Z,21.33
2019-05-02T12:57:49.692Z,19.47
2019-05-02T12:59:53.206Z,19.50
2019-05-02T13:01:59.839Z,20.17
2019-05-02T13:04:12.450Z,19.00
2019-05-02T13:06:16.208Z,19.17
2019-05-02T13:08:21.866Z,18.30
2019-05-02T13:10:27.226Z,20.77
2019-05-02T13:12:32.775Z,19.93
2019-05-02T13:14:36.682Z,20.73
2019-05-02T13:16:40.228Z,19.40
2019-05-02T13:18:44.073Z,21.23
2019-05-02T13:20:47.973Z,18.57
2019-05-02T13:23:08.988Z,17.60
2019-05-02T13:25:14.418Z,18.50
2019-05-02T13:27:18.477Z,20.07
2019-05-02T13:29:22.558Z,19.97
2019-05-02T13:31:28.097Z,18.07
2019-05-02T13:33:35.823Z,18.00
2019-05-02T13:35:43.980Z,17.43
2019-05-02T13:37:48.822Z,20.27
2019-05-02T13:39:54.462Z,18.60
2019-05-02T13:41:58.374Z,21.50
2019-05-02T13:44:02.701Z,21.13
2019-05-02T13:46:12.617Z,18.93
2019-05-02T13:48:16.636Z,20.47
2019-05-02T13:50:22.336Z,19.30
2019-05-02T13:52:26.399Z,18.80
2019-05-02T13:54:32.890Z,18.20
2019-05-02T13:56:45.135Z,20.93
2019-05-02T13:58:49.175Z,18.33
2019-05-02T14:00:52.983Z,20.77
2019-05-02T14:02:56.868Z,20.43
2019-05-02T14:05:02.281Z,19.33
2019-05-02T14:07:07.576Z,20.13
2019-05-02T14:09:19.996Z,18.97
2019-05-02T14:11:43.394Z,18.80
2019-05-02T14:13:46.820Z,20.57
2019-05-02T14:15:52.610Z,21.53
2019-05-02T14:17:56.266Z,20.00
2019-05-02T14:20:08.585Z,20.87
2019-05-02T14:22:05.517Z,22.53
2019-05-02T14:24:09.425Z,21.50
2019-05-02T14:26:13.346Z,22.37
2019-05-02T14:28:17.232Z,20.10
2019-05-02T14:30:35.732Z,20.67
2019-05-02T14:32:28.146Z,20.90
2019-05-02T14:34:36.111Z,21.10
2019-05-02T14:36:40.019Z,21.23
2019-05-02T14:38:43.554Z,21.23
2019-05-02T14:40:58.486Z,20.07
2019-05-02T14:43:05.255Z,21.90
2019-05-02T14:45:17.789Z,23.30
2019-05-02T14:47:17.902Z,20.83
2019-05-02T14:49:23.895Z,19.60
2019-05-02T14:51:27.785Z,20.33
2019-05-02T14:53:31.924Z,20.10
2019-05-02T14:55:36.905Z,19.57
2019-05-02T14:57:42.744Z,19.53
2019-05-02T14:59:50.237Z,19.00
2019-05-02T15:01:57.959Z,18.03
2019-05-02T15:04:04.101Z,20.07
2019-05-02T15:06:06.998Z,18.73
2019-05-02T15:08:11.769Z,17.13
2019-05-02T15:10:16.355Z,18.63
2019-05-02T15:12:22.090Z,17.47
2019-05-02T15:14:27.828Z,17.20
2019-05-02T15:16:40.498Z,17.50
2019-05-02T15:18:37.423Z,16.73
2019-05-02T15:20:42.393Z,15.63
2019-05-02T15:22:45.987Z,14.83
2019-05-02T15:24:49.901Z,14.90
2019-05-02T15:26:53.814Z,15.10
2019-05-02T15:28:57.696Z,14.53
2019-05-02T15:31:06.202Z,14.23
2019-05-02T15:33:12.542Z,13.27
2019-05-02T15:35:23.017Z,13.77
2019-05-02T15:37:25.666Z,13.50
2019-05-02T15:41:35.046Z,13.50
2019-05-02T15:43:39.202Z,13.23
2019-05-02T15:45:45.444Z,13.93
2019-05-02T15:47:49.316Z,13.60
2019-05-02T15:49:53.122Z,13.00
2019-05-02T15:51:57.042Z,12.83
2019-05-02T15:54:08.130Z,12.33
2019-05-02T15:56:18.699Z,13.50
2019-05-02T15:58:16.879Z,14.87
2019-05-02T16:00:25.706Z,15.00
2019-05-02T16:02:32.035Z,15.30
2019-05-02T16:04:37.573Z,15.30
2019-05-02T16:06:41.927Z,14.23
2019-05-02T16:08:47.335Z,14.70
2019-05-02T16:10:51.221Z,14.97
2019-05-02T16:12:55.218Z,15.40
2019-05-02T16:14:59.154Z,16.03
2019-05-02T16:17:03.788Z,15.90
2019-05-02T16:19:07.569Z,16.20
2019-05-02T16:21:13.114Z,16.37
2019-05-02T16:23:19.053Z,15.70
2019-05-02T16:25:24.385Z,16.60
2019-05-02T16:27:45.206Z,16.80
2019-05-02T16:29:49.012Z,17.43
2019-05-02T16:31:59.666Z,18.17
2019-05-02T16:34:02.652Z,19.83
2019-05-02T16:36:06.880Z,20.50
2019-05-02T16:38:12.288Z,21.70
2019-05-02T16:40:22.131Z,21.73
2019-05-02T16:42:23.517Z,20.03
2019-05-02T16:44:27.405Z,22.10
2019-05-02T16:46:32.298Z,23.07
2019-05-02T16:48:37.695Z,23.40
2019-05-02T16:50:42.720Z,22.97
2019-05-02T16:52:47.584Z,24.10
2019-05-02T16:54:52.686Z,23.93
2019-05-02T16:56:58.559Z,25.57
2019-05-02T16:59:02.130Z,23.53
2019-05-02T17:01:06.534Z,24.80
2019-05-02T17:03:12.539Z,22.57
2019-05-02T17:05:16.516Z,28.73
2019-05-02T17:07:22.132Z,30.93
2019-05-02T17:09:33.536Z,32.90
2019-05-02T17:11:48.154Z,33.03
2019-05-02T17:13:52.750Z,33.70
2019-05-02T17:15:56.619Z,31.77
2019-05-02T17:18:04.952Z,32.00
2019-05-02T17:20:12.180Z,34.77
2019-05-02T17:22:16.632Z,33.97
2019-05-02T17:24:22.639Z,34.53
2019-05-02T17:26:24.226Z,35.40
2019-05-02T17:28:28.125Z,34.33
2019-05-02T17:30:38.649Z,36.07
2019-05-02T17:32:37.827Z,33.30
2019-05-02T17:34:42.243Z,33.37
2019-05-02T17:36:45.935Z,34.70
2019-05-02T17:38:54.258Z,28.67
2019-05-02T17:40:59.331Z,22.50
2019-05-02T17:43:06.563Z,21.13
2019-05-02T17:45:09.204Z,20.23
2019-05-02T17:47:14.291Z,20.83
2019-05-02T17:49:18.556Z,21.43
2019-05-02T17:51:28.218Z,20.63
2019-05-02T17:53:33.953Z,24.27
2019-05-02T17:55:40.440Z,24.83
2019-05-02T17:57:41.891Z,22.30
2019-05-02T17:59:45.191Z,24.57
2019-05-02T18:01:48.745Z,24.73
2019-05-02T18:03:52.280Z,24.13
2019-05-02T18:05:56.136Z,27.03
2019-05-02T18:08:00.045Z,26.43
2019-05-02T18:10:13.584Z,26.83
2019-05-02T18:12:15.067Z,26.50
2019-05-02T18:14:21.147Z,31.00
2019-05-02T18:16:22.938Z,29.73
2019-05-02T18:18:26.852Z,28.07
2019-05-02T18:20:32.372Z,30.87
2019-05-02T18:22:40.031Z,30.23
2019-05-02T18:24:42.811Z,31.67
2019-05-02T18:26:46.447Z,31.70
2019-05-02T18:28:52.544Z,31.97
2019-05-02T18:30:57.093Z,34.33
2019-05-02T18:33:03.563Z,33.87
2019-05-02T18:35:07.188Z,33.90
2019-05-02T18:37:10.983Z,32.90
2019-05-02T18:39:14.921Z,34.03
2019-05-02T18:41:18.823Z,34.50
2019-05-02T18:43:23.474Z,32.77
2019-05-02T18:45:28.794Z,33.70
2019-05-02T18:47:33.424Z,33.70
2019-05-02T18:49:37.514Z,31.87
2019-05-02T18:51:42.383Z,33.30
2019-05-02T18:53:46.363Z,33.00
2019-05-02T18:55:51.917Z,32.50
2019-05-02T18:57:57.055Z,31.63
2019-05-02T19:00:01.969Z,31.67
2019-05-02T19:02:06.159Z,32.13
2019-05-02T19:04:10.094Z,33.43
2019-05-02T19:06:13.736Z,29.80
2019-05-02T19:08:28.178Z,31.47
2019-05-02T19:10:23.427Z,30.67
2019-05-02T19:12:27.265Z,29.43
2019-05-02T19:14:32.757Z,32.53
2019-05-02T19:16:36.620Z,31.43
2019-05-02T19:18:42.516Z,30.77
2019-05-02T19:20:57.383Z,30.17
2019-05-02T19:23:02.714Z,29.17
2019-05-02T19:25:06.534Z,30.93
2019-05-02T19:27:12.843Z,29.63
2019-05-02T19:29:24.151Z,27.07
2019-05-02T19:31:29.618Z,29.47
2019-05-02T19:33:37.597Z,28.03
2019-05-02T19:35:43.206Z,27.93
2019-05-02T19:37:47.783Z,26.17
2019-05-02T19:39:50.214Z,25.40
2019-05-02T19:41:54.145Z,25.07
2019-05-02T19:43:58.066Z,25.57
2019-05-02T19:46:02.317Z,26.20
2019-05-02T19:48:06.383Z,26.30
2019-05-02T19:50:33.719Z,23.93
2019-05-02T19:52:39.264Z,29.00
2019-05-02T19:54:41.220Z,26.97
2019-05-02T19:56:47.560Z,26.43
2019-05-02T19:58:52.143Z,26.27
2019-05-02T20:00:57.979Z,26.87
2019-05-02T20:03:01.905Z,26.33
2019-05-02T20:05:06.695Z,27.17
2019-05-02T20:07:12.373Z,26.00
2019-05-02T20:09:16.481Z,26.40
2019-05-02T20:11:21.831Z,26.60
2019-05-02T20:13:30.570Z,27.73
2019-05-02T20:15:32.924Z,27.47
2019-05-02T20:17:36.385Z,27.60
2019-05-02T20:19:42.304Z,28.60
2019-05-02T20:21:47.883Z,27.20
2019-05-02T20:23:51.499Z,26.70
2019-05-02T20:25:55.596Z,26.70
2019-05-02T20:27:59.141Z,26.40
2019-05-02T20:30:03.183Z,28.67
2019-05-02T20:32:06.738Z,28.80
2019-05-02T20:34:11.805Z,28.10
2019-05-02T20:36:15.841Z,28.80
2019-05-02T20:38:21.740Z,28.57
2019-05-02T20:40:33.269Z,26.80
2019-05-02T20:42:37.092Z,25.97
2019-05-02T20:44:41.900Z,28.37
2019-05-02T20:46:45.936Z,28.00
2019-05-02T20:48:50.134Z,26.03
2019-05-02T20:50:53.694Z,25.60
2019-05-02T20:52:57.852Z,24.13
2019-05-02T20:55:01.920Z,18.50
2019-05-02T20:57:05.549Z,17.70
2019-05-02T20:59:09.446Z,17.97
2019-05-02T21:01:13.455Z,13.90
2019-05-02T21:03:17.375Z,14.13
2019-05-02T21:05:24.962Z,12.07
2019-05-02T21:07:36.271Z,9.17
2019-05-02T21:09:47.286Z,8.97
2019-05-02T21:11:52.747Z,8.67
2019-05-02T21:13:56.649Z,7.17
2019-05-02T21:16:01.811Z,7.97
2019-05-02T21:18:05.995Z,8.40
2019-05-02T21:20:10.005Z,6.93
2019-05-02T21:22:19.283Z,6.87
2019-05-02T21:24:22.837Z,6.77
2019-05-02T21:26:26.737Z,5.87
2019-05-02T21:28:32.117Z,5.73
2019-05-02T21:30:36.297Z,5.63
2019-05-02T21:32:40.196Z,5.23
2019-05-02T21:34:44.093Z,4.77
2019-05-02T21:36:47.719Z,5.20
2019-05-02T21:38:52.074Z,5.17
2019-05-02T21:40:56.333Z,5.00
2019-05-02T21:43:02.352Z,5.30
2019-05-02T21:45:07.122Z,4.87
2019-05-02T21:47:10.998Z,5.90
2019-05-02T21:49:16.966Z,4.92
2019-05-02T21:51:22.812Z,4.72
2019-05-02T21:53:54.955Z,5.20
2019-05-02T21:55:52.231Z,5.37
2019-05-02T21:57:56.137Z,5.67
2019-05-02T21:59:59.952Z,5.27
2019-05-02T22:02:05.403Z,5.50
2019-05-02T22:04:09.294Z,5.07
2019-05-02T22:06:13.395Z,5.30
2019-05-02T22:08:17.291Z,5.73
2019-05-02T22:10:22.707Z,5.27
2019-05-02T22:12:26.782Z,5.10
2019-05-02T22:14:30.356Z,5.43
2019-05-02T22:16:34.165Z,6.17
2019-05-02T22:18:38.059Z,5.97
2019-05-02T22:20:42.791Z,5.33
2019-05-02T22:22:46.696Z,5.93
2019-05-02T22:24:52.814Z,5.50
2019-05-02T22:26:56.650Z,5.03
2019-05-02T22:29:01.909Z,5.57
2019-05-02T22:31:06.098Z,5.57
2019-05-02T22:33:11.782Z,6.70
2019-05-02T22:35:15.664Z,5.77
2019-05-02T22:37:22.050Z,5.30
2019-05-02T22:39:27.559Z,5.83
2019-05-02T22:41:32.560Z,6.00
2019-05-02T22:43:36.276Z,5.47
2019-05-02T22:45:41.778Z,5.87
2019-05-02T22:47:45.496Z,6.57
2019-05-02T22:49:49.337Z,6.33
2019-05-02T22:51:52.950Z,5.63
2019-05-02T22:53:56.841Z,5.80
2019-05-02T22:56:00.954Z,6.12
2019-05-02T22:58:04.852Z,6.17
2019-05-02T23:00:09.572Z,6.03
2019-05-02T23:02:13.782Z,5.87
2019-05-02T23:04:17.715Z,6.03
2019-05-02T23:06:21.610Z,6.00
2019-05-02T23:08:25.154Z,6.20
2019-05-02T23:10:28.696Z,5.90
2019-05-02T23:12:32.243Z,7.00
2019-05-02T23:14:36.100Z,6.27
2019-05-02T23:16:42.324Z,6.23
2019-05-02T23:18:45.757Z,6.55
2019-05-02T23:20:49.865Z,6.78
2019-05-02T23:22:53.387Z,6.63
2019-05-02T23:25:02.916Z,6.85
2019-05-02T23:27:17.464Z,7.15
2019-05-02T23:29:22.596Z,7.53
2019-05-02T23:31:26.800Z,7.65
2019-05-02T23:33:48.432Z,7.33
2019-05-02T23:35:52.634Z,7.58
2019-05-02T23:37:56.749Z,7.12
2019-05-02T23:40:02.044Z,7.50
2019-05-02T23:42:05.757Z,7.83
2019-05-02T23:44:09.886Z,8.20
2019-05-02T23:46:13.717Z,7.90
2019-05-02T23:48:17.333Z,8.07
2019-05-02T23:50:22.831Z,8.55
2019-05-02T23:52:26.838Z,8.47
2019-05-02T23:54:32.452Z,8.03
2019-05-02T23:56:36.503Z,8.70
2019-05-02T23:58:40.295Z,8.57
